Quarryville, Pennsylvania
Current Conditions -  °F | °C
As of 9:55 AM on Wednesday 26 Nov 2014 (Local Time) from KMQS Reporting Station
Light Snow Light Snow  
Wind Chill: 26°   Ceiling: 100
Heat Index: 32°   Visibility: 0.75mi
Dew Point: 32°   Wind: 6mph
Humidity: 100%   Direction: 40°NE
Pressure: 30.06"   Gusts: NA
Location:  39.9°N, 76.16°W
Report Text: KMQS 261455Z AUTO 04005KT 3/4SM -SN OVC001 00/00 A3006 RMK AO2 P0005
Loading
Personal Weather Stations






























Interactive Weather Map New forecast layout! Learn more

10-Day Weather Forecast

Advertisements
Track Severe Weather on mobile